createdAt,value
2022-09-04T00:01:00.097Z,100.00
2022-09-04T00:15:23.758Z,100.00
2022-09-04T00:30:23.784Z,100.00
2022-09-04T00:45:23.668Z,100.00
2022-09-04T01:00:25.590Z,100.00
2022-09-04T01:15:23.824Z,100.00
2022-09-04T01:30:24.242Z,100.00
2022-09-04T01:45:24.230Z,100.00
2022-09-04T02:00:25.060Z,100.00
2022-09-04T02:15:23.617Z,100.00
2022-09-04T02:30:23.431Z,100.00
2022-09-04T02:45:24.014Z,100.00
2022-09-04T03:00:26.385Z,100.00
2022-09-04T03:15:24.093Z,100.00
2022-09-04T03:30:24.116Z,100.00
2022-09-04T03:45:24.133Z,100.00
2022-09-04T04:00:27.229Z,100.00
2022-09-04T04:15:24.339Z,100.00
2022-09-04T04:30:24.523Z,100.00
2022-09-04T04:45:24.177Z,100.00
2022-09-04T05:00:27.634Z,100.00
2022-09-04T05:15:24.132Z,100.00
2022-09-04T05:30:24.280Z,100.00
2022-09-04T05:45:24.486Z,100.00
2022-09-04T06:00:25.149Z,100.00
2022-09-04T06:15:24.758Z,100.00
2022-09-04T06:30:24.351Z,100.00
2022-09-04T06:45:24.328Z,100.00
2022-09-04T07:00:41.836Z,100.00
2022-09-04T07:15:23.588Z,100.00
2022-09-04T07:30:23.212Z,100.00
2022-09-04T07:45:23.537Z,100.00
2022-09-04T08:00:28.669Z,100.00
2022-09-04T08:15:23.714Z,100.00
2022-09-04T08:30:23.572Z,100.00
2022-09-04T08:45:23.431Z,100.00
2022-09-04T09:00:29.845Z,100.00
2022-09-04T09:15:23.658Z,100.00
2022-09-04T09:30:23.621Z,100.00
2022-09-04T09:45:23.600Z,100.00
2022-09-04T10:00:30.754Z,100.00
2022-09-04T10:15:23.630Z,100.00
2022-09-04T10:30:23.925Z,100.00
2022-09-04T10:45:23.773Z,100.00
2022-09-04T11:00:30.036Z,95.13
2022-09-04T11:15:24.120Z,85.20
2022-09-04T11:30:23.866Z,77.70
2022-09-04T11:45:23.930Z,76.90
2022-09-04T12:00:36.629Z,69.83
2022-09-04T12:15:24.083Z,69.97
2022-09-04T12:30:24.028Z,68.25
2022-09-04T12:45:24.034Z,65.90
2022-09-04T13:00:27.617Z,61.20
2022-09-04T13:15:24.079Z,59.30
2022-09-04T13:30:24.379Z,60.80
2022-09-04T13:45:24.119Z,62.43
2022-09-04T14:00:32.762Z,62.10
2022-09-04T14:15:24.172Z,62.70
2022-09-04T14:30:24.228Z,60.17
2022-09-04T14:45:24.127Z,59.35
2022-09-04T15:00:27.789Z,56.67
2022-09-04T15:15:24.744Z,54.23
2022-09-04T15:30:23.790Z,52.07
2022-09-04T15:45:24.035Z,51.07
2022-09-04T16:00:50.404Z,52.57
2022-09-04T16:15:24.060Z,56.37
2022-09-04T16:30:34.008Z,64.07
2022-09-04T16:45:33.211Z,70.33
2022-09-04T17:00:37.974Z,85.47
2022-09-04T17:15:23.236Z,100.00
2022-09-04T17:30:25.625Z,100.00
2022-09-04T17:45:23.326Z,100.00
2022-09-04T18:00:23.403Z,100.00
2022-09-04T18:15:33.262Z,100.00
2022-09-04T18:36:17.352Z,100.00
2022-09-04T18:50:30.861Z,100.00
2022-09-04T19:00:23.485Z,100.00
2022-09-04T19:15:23.530Z,100.00
2022-09-04T19:30:25.380Z,100.00
2022-09-04T19:46:13.995Z,100.00
2022-09-04T20:00:43.671Z,100.00
2022-09-04T20:15:30.091Z,100.00
2022-09-04T20:30:24.567Z,100.00
2022-09-04T20:50:00.599Z,100.00
2022-09-04T21:03:18.901Z,100.00
2022-09-04T21:15:23.638Z,100.00
2022-09-04T21:30:24.140Z,100.00
2022-09-04T21:45:23.811Z,100.00
2022-09-04T22:15:26.706Z,100.00
2022-09-04T22:30:23.761Z,100.00
2022-09-04T22:45:23.884Z,100.00
2022-09-04T23:00:23.844Z,100.00
2022-09-04T23:15:24.096Z,100.00
2022-09-04T23:30:25.709Z,100.00
2022-09-04T23:45:23.968Z,100.00
